createdAt,value
2022-12-15T00:00:18.680Z,15.70
2022-12-15T00:03:04.047Z,15.10
2022-12-15T00:05:55.569Z,14.25
2022-12-15T00:08:40.958Z,14.40
2022-12-15T00:11:32.769Z,15.77
2022-12-15T00:14:18.089Z,18.52
2022-12-15T00:17:16.865Z,16.27
2022-12-15T00:20:13.608Z,16.35
2022-12-15T00:23:02.093Z,16.75
2022-12-15T00:25:54.826Z,16.90
2022-12-15T00:28:42.151Z,17.58
2022-12-15T00:31:34.708Z,16.05
2022-12-15T00:37:16.055Z,15.20
2022-12-15T00:39:49.750Z,14.70
2022-12-15T00:42:16.529Z,15.35
2022-12-15T00:44:43.288Z,17.13
2022-12-15T00:47:16.886Z,16.02
2022-12-15T00:50:02.151Z,16.10
2022-12-15T00:56:00.780Z,17.75
2022-12-15T00:58:52.713Z,17.85
2022-12-15T01:01:38.403Z,18.52
2022-12-15T01:04:30.758Z,16.35
2022-12-15T01:07:16.185Z,20.67
2022-12-15T01:10:07.654Z,17.38
2022-12-15T01:12:53.313Z,20.25
2022-12-15T01:15:44.736Z,19.50
2022-12-15T01:18:30.518Z,18.08
2022-12-15T01:21:08.639Z,16.42
2022-12-15T01:23:36.653Z,15.68
2022-12-15T01:26:12.799Z,17.13
2022-12-15T01:28:39.618Z,18.73
2022-12-15T01:31:19.748Z,20.10
2022-12-15T01:33:47.326Z,21.00
2022-12-15T01:36:14.269Z,21.10
2022-12-15T01:38:53.681Z,18.77
2022-12-15T01:41:21.013Z,18.48
2022-12-15T01:43:54.713Z,20.05
2022-12-15T01:46:29.711Z,19.65
2022-12-15T01:49:13.535Z,18.55
2022-12-15T01:51:51.690Z,16.80
2022-12-15T01:54:29.803Z,17.00
2022-12-15T01:57:03.089Z,18.23
2022-12-15T01:59:41.766Z,17.92
2022-12-15T02:02:08.910Z,15.27
2022-12-15T02:04:37.875Z,15.05
2022-12-15T02:07:12.957Z,19.40
2022-12-15T02:09:40.915Z,21.52
2022-12-15T02:12:32.004Z,19.13
2022-12-15T02:15:17.508Z,21.17
2022-12-15T02:18:25.750Z,23.52
2022-12-15T02:21:19.087Z,23.08
2022-12-15T02:23:57.743Z,21.55
2022-12-15T02:26:47.050Z,22.27
2022-12-15T02:29:29.875Z,20.17
2022-12-15T02:32:11.176Z,21.02
2022-12-15T02:34:52.020Z,16.35
2022-12-15T02:37:33.193Z,17.75
2022-12-15T02:40:07.779Z,19.08
2022-12-15T02:42:38.910Z,16.77
2022-12-15T02:45:20.135Z,16.55
2022-12-15T02:48:05.719Z,23.67
2022-12-15T02:51:13.828Z,17.25
2022-12-15T02:54:06.092Z,18.50
2022-12-15T02:56:55.829Z,16.15
2022-12-15T02:59:34.047Z,18.33
2022-12-15T03:02:13.903Z,15.90
2022-12-15T03:04:43.102Z,16.35
2022-12-15T03:07:18.087Z,16.65
2022-12-15T03:09:44.985Z,16.17
2022-12-15T03:12:11.754Z,18.45
2022-12-15T03:14:46.816Z,18.30
2022-12-15T03:17:13.638Z,16.80
2022-12-15T03:19:40.419Z,15.18
2022-12-15T03:22:14.055Z,18.02
2022-12-15T03:24:40.873Z,16.10
2022-12-15T03:27:07.732Z,15.13
2022-12-15T03:29:40.884Z,15.13
2022-12-15T03:32:08.352Z,17.05
2022-12-15T03:34:35.174Z,16.17
2022-12-15T03:37:13.110Z,14.73
2022-12-15T03:39:39.914Z,15.35
2022-12-15T03:42:07.671Z,14.65
2022-12-15T03:44:40.863Z,15.18
2022-12-15T03:47:07.668Z,16.30
2022-12-15T03:49:34.560Z,16.15
2022-12-15T03:52:07.912Z,20.40
2022-12-15T03:54:34.699Z,16.15
2022-12-15T03:57:07.990Z,14.95
2022-12-15T03:59:34.733Z,16.17
2022-12-15T04:02:01.649Z,15.73
2022-12-15T04:04:40.884Z,14.90
2022-12-15T04:07:07.640Z,14.98
2022-12-15T04:09:40.879Z,15.30
2022-12-15T04:12:10.748Z,16.73
2022-12-15T04:14:49.554Z,16.35
2022-12-15T04:17:16.730Z,14.88
2022-12-15T04:20:14.937Z,19.13
2022-12-15T04:22:53.500Z,15.98
2022-12-15T04:25:48.206Z,16.50
2022-12-15T04:28:39.657Z,15.15
2022-12-15T04:31:42.961Z,15.38
2022-12-15T04:34:35.031Z,15.63
2022-12-15T04:37:26.920Z,14.88
2022-12-15T04:40:13.700Z,16.10
2022-12-15T04:43:09.096Z,16.10
2022-12-15T04:45:54.601Z,15.43
2022-12-15T04:48:47.113Z,14.82
2022-12-15T04:51:32.600Z,14.75
2022-12-15T04:54:24.969Z,16.80
2022-12-15T04:57:10.465Z,16.55
2022-12-15T05:00:02.182Z,17.40
2022-12-15T05:02:47.596Z,18.33
2022-12-15T05:05:42.022Z,16.67
2022-12-15T05:08:27.304Z,17.60
2022-12-15T05:11:19.089Z,17.27
2022-12-15T05:14:04.847Z,13.48
2022-12-15T05:16:57.065Z,18.17
2022-12-15T05:19:49.007Z,16.10
2022-12-15T05:22:38.369Z,18.52
2022-12-15T05:25:36.000Z,18.75
2022-12-15T05:28:24.925Z,20.13
2022-12-15T05:31:17.059Z,19.60
2022-12-15T05:33:54.323Z,15.90
2022-12-15T05:36:29.990Z,15.23
2022-12-15T05:38:56.739Z,21.00
2022-12-15T05:41:30.173Z,16.60
2022-12-15T05:43:56.929Z,13.70
2022-12-15T05:46:37.233Z,15.98
2022-12-15T05:49:09.354Z,15.15
2022-12-15T05:51:47.065Z,15.32
2022-12-15T05:54:16.744Z,16.67
2022-12-15T05:56:43.616Z,15.00
2022-12-15T05:59:17.340Z,15.43
2022-12-15T06:01:44.287Z,17.42
2022-12-15T06:04:14.640Z,15.20
2022-12-15T06:06:55.124Z,17.88
2022-12-15T06:09:22.117Z,16.30
2022-12-15T06:11:48.928Z,15.60
2022-12-15T06:14:22.082Z,16.73
2022-12-15T06:16:50.791Z,14.95
2022-12-15T06:19:19.758Z,15.40
2022-12-15T06:21:53.248Z,15.93
2022-12-15T06:24:20.031Z,17.33
2022-12-15T06:26:54.060Z,16.15
2022-12-15T06:29:20.984Z,14.43
2022-12-15T06:31:48.145Z,15.80
2022-12-15T06:34:23.106Z,14.13
2022-12-15T06:36:55.230Z,14.63
2022-12-15T06:39:22.188Z,14.88
2022-12-15T06:41:55.147Z,16.35
2022-12-15T06:44:22.297Z,17.17
2022-12-15T06:46:55.336Z,17.60
2022-12-15T06:49:22.188Z,16.83
2022-12-15T06:51:50.069Z,15.05
2022-12-15T06:54:24.380Z,16.00
2022-12-15T06:56:54.625Z,15.90
2022-12-15T06:59:21.360Z,14.77
2022-12-15T07:01:55.293Z,15.27
2022-12-15T07:04:25.788Z,15.25
2022-12-15T07:06:52.665Z,14.20
2022-12-15T07:09:27.164Z,16.30
2022-12-15T07:12:01.151Z,15.32
2022-12-15T07:14:28.170Z,15.40
2022-12-15T07:16:54.915Z,15.75
2022-12-15T07:19:28.307Z,15.32
2022-12-15T07:22:01.488Z,17.23
2022-12-15T07:24:35.157Z,18.58
2022-12-15T07:27:02.046Z,14.63
2022-12-15T07:29:35.180Z,16.33
2022-12-15T07:32:02.036Z,18.08
2022-12-15T07:34:29.207Z,15.25
2022-12-15T07:37:02.234Z,19.80
2022-12-15T07:39:29.126Z,18.88
2022-12-15T07:41:55.940Z,17.70
2022-12-15T07:44:29.384Z,17.55
2022-12-15T07:46:56.190Z,18.52
2022-12-15T07:49:23.399Z,15.23
2022-12-15T07:52:05.496Z,17.85
2022-12-15T07:54:32.510Z,15.98
2022-12-15T07:57:04.671Z,12.85
2022-12-15T07:59:38.237Z,16.60
2022-12-15T08:02:13.391Z,15.70
2022-12-15T08:04:40.773Z,15.45
2022-12-15T08:07:17.322Z,18.92
2022-12-15T08:09:44.129Z,17.35
2022-12-15T08:12:11.031Z,16.40
2022-12-15T08:14:44.561Z,19.67
2022-12-15T08:17:17.925Z,14.15
2022-12-15T08:19:54.475Z,14.32
2022-12-15T08:22:24.789Z,14.88
2022-12-15T08:24:58.294Z,14.48
2022-12-15T08:27:27.230Z,13.98
2022-12-15T08:29:54.748Z,13.85
2022-12-15T08:32:29.302Z,14.52
2022-12-15T08:34:56.105Z,12.88
2022-12-15T08:37:29.300Z,13.65
2022-12-15T08:39:56.132Z,14.38
2022-12-15T08:42:29.563Z,17.05
2022-12-15T08:44:56.348Z,23.45
2022-12-15T08:47:23.219Z,20.58
2022-12-15T08:49:56.341Z,22.95
2022-12-15T08:52:30.350Z,19.15
2022-12-15T08:54:57.153Z,21.58
2022-12-15T08:57:24.053Z,21.13
2022-12-15T08:59:58.504Z,20.40
2022-12-15T09:02:25.351Z,21.05
2022-12-15T09:04:52.530Z,22.30
2022-12-15T09:07:26.569Z,23.65
2022-12-15T09:09:53.646Z,24.88
2022-12-15T09:12:25.164Z,26.80
2022-12-15T09:15:06.632Z,24.98
2022-12-15T09:17:33.436Z,23.55
2022-12-15T09:20:00.192Z,23.95
2022-12-15T09:22:43.439Z,23.90
2022-12-15T09:25:10.436Z,23.00
2022-12-15T09:27:37.293Z,18.85
2022-12-15T09:30:11.471Z,17.35
2022-12-15T09:32:38.257Z,20.65
2022-12-15T09:35:05.573Z,20.23
2022-12-15T09:37:39.394Z,25.88
2022-12-15T09:40:06.835Z,25.83
2022-12-15T09:42:34.626Z,23.63
2022-12-15T09:45:42.600Z,23.17
2022-12-15T09:48:17.045Z,23.83
2022-12-15T09:50:54.500Z,24.10
2022-12-15T09:53:53.610Z,27.70
2022-12-15T09:56:27.537Z,25.58
2022-12-15T09:59:30.725Z,28.40
2022-12-15T10:02:47.565Z,26.65
2022-12-15T10:08:56.094Z,25.17
2022-12-15T10:11:50.253Z,30.08
2022-12-15T10:14:26.887Z,28.35
2022-12-15T10:17:19.404Z,26.13
2022-12-15T10:19:55.609Z,25.05
2022-12-15T10:22:46.472Z,23.33
2022-12-15T10:25:30.359Z,25.52
2022-12-15T10:28:22.716Z,25.92
2022-12-15T10:31:08.905Z,25.05
2022-12-15T10:33:48.704Z,31.75
2022-12-15T10:36:17.570Z,29.33
2022-12-15T10:38:54.528Z,25.17
2022-12-15T10:41:30.721Z,28.55
2022-12-15T10:43:57.819Z,29.30
2022-12-15T10:46:27.295Z,29.80
2022-12-15T10:49:05.640Z,26.75
2022-12-15T10:51:37.326Z,26.80
2022-12-15T10:54:19.503Z,26.98
2022-12-15T10:57:02.781Z,28.80
2022-12-15T10:59:39.561Z,26.23
2022-12-15T11:02:30.833Z,23.60
2022-12-15T11:05:19.050Z,24.38
2022-12-15T11:08:02.512Z,24.00
2022-12-15T11:10:50.436Z,23.80
2022-12-15T11:13:34.868Z,24.75
2022-12-15T11:16:17.995Z,23.23
2022-12-15T11:18:57.540Z,27.58
2022-12-15T11:21:33.204Z,23.55
2022-12-15T11:24:26.844Z,25.73
2022-12-15T11:27:03.538Z,23.90
2022-12-15T11:30:03.819Z,25.15
2022-12-15T11:32:34.347Z,21.67
2022-12-15T11:35:03.862Z,22.48
2022-12-15T11:37:47.644Z,23.40
2022-12-15T11:40:35.695Z,28.85
2022-12-15T11:43:31.130Z,27.63
2022-12-15T11:46:13.355Z,37.42
2022-12-15T11:48:46.601Z,35.08
2022-12-15T11:51:27.418Z,27.30
2022-12-15T11:54:21.609Z,27.95
2022-12-15T11:56:49.029Z,33.60
2022-12-15T11:59:52.618Z,33.40
2022-12-15T12:02:47.495Z,28.27
2022-12-15T12:05:39.957Z,30.98
2022-12-15T12:08:18.812Z,31.95
2022-12-15T12:10:55.962Z,31.20
2022-12-15T12:13:40.918Z,32.67
2022-12-15T12:16:46.678Z,27.75
2022-12-15T12:19:42.570Z,26.73
2022-12-15T12:23:02.636Z,28.55
2022-12-15T12:25:34.498Z,33.08
2022-12-15T12:28:21.617Z,34.92
2022-12-15T12:30:50.512Z,31.17
2022-12-15T12:33:46.877Z,33.15
2022-12-15T12:36:16.733Z,33.25
2022-12-15T12:38:56.723Z,33.30
2022-12-15T12:41:23.587Z,31.40
2022-12-15T12:44:04.685Z,34.65
2022-12-15T12:46:36.374Z,28.05
2022-12-15T12:49:33.974Z,25.98
2022-12-15T12:52:03.603Z,32.63
2022-12-15T12:54:42.714Z,28.63
2022-12-15T12:57:19.089Z,34.67
2022-12-15T12:59:56.972Z,28.75
2022-12-15T13:02:32.916Z,27.02
2022-12-15T13:05:27.729Z,31.52
2022-12-15T13:08:02.748Z,26.40
2022-12-15T13:10:29.991Z,28.45
2022-12-15T13:13:05.797Z,25.52
2022-12-15T13:15:51.205Z,24.70
2022-12-15T13:18:32.261Z,26.63
2022-12-15T13:21:35.101Z,28.38
2022-12-15T13:24:10.973Z,26.95
2022-12-15T13:26:44.988Z,23.60
2022-12-15T13:29:31.825Z,25.05
2022-12-15T13:32:00.179Z,24.65
2022-12-15T13:34:35.903Z,21.83
2022-12-15T13:37:03.118Z,25.55
2022-12-15T13:39:34.150Z,30.63
2022-12-15T13:45:12.238Z,30.20
2022-12-15T13:47:48.187Z,32.47
2022-12-15T13:50:34.996Z,32.25
2022-12-15T13:53:19.482Z,33.70
2022-12-15T13:56:05.911Z,29.00
2022-12-15T13:58:41.308Z,26.48
2022-12-15T14:01:32.212Z,29.85
2022-12-15T14:04:16.491Z,28.75
2022-12-15T14:07:02.786Z,27.98
2022-12-15T14:09:33.757Z,27.33
2022-12-15T14:12:11.066Z,24.10
2022-12-15T14:14:50.160Z,22.77
2022-12-15T14:17:26.013Z,24.33
2022-12-15T14:19:53.080Z,27.90
2022-12-15T14:22:34.956Z,25.13
2022-12-15T14:25:19.848Z,27.20
2022-12-15T14:27:54.094Z,23.52
2022-12-15T14:30:33.630Z,22.65
2022-12-15T14:33:21.345Z,22.55
2022-12-15T14:35:59.556Z,19.20
2022-12-15T14:38:37.857Z,24.13
2022-12-15T14:41:13.048Z,22.65
2022-12-15T14:43:40.555Z,20.35
2022-12-15T14:46:22.932Z,22.55
2022-12-15T14:51:21.179Z,20.33
2022-12-15T14:53:58.169Z,22.10
2022-12-15T14:56:31.172Z,21.33
2022-12-15T14:59:26.163Z,25.80
2022-12-15T15:02:02.186Z,22.55
2022-12-15T15:04:40.987Z,18.42
2022-12-15T15:07:24.053Z,25.23
2022-12-15T15:09:51.888Z,19.85
2022-12-15T15:12:34.990Z,20.92
2022-12-15T15:15:05.852Z,21.45
2022-12-15T15:17:51.096Z,21.65
2022-12-15T15:20:35.930Z,21.13
2022-12-15T15:23:23.251Z,23.67
2022-12-15T15:26:06.400Z,20.50
2022-12-15T15:28:48.914Z,20.70
2022-12-15T15:31:45.307Z,21.23
2022-12-15T15:34:12.372Z,20.53
2022-12-15T15:36:43.339Z,19.75
2022-12-15T15:39:19.998Z,20.63
2022-12-15T15:41:47.069Z,19.02
2022-12-15T15:44:22.261Z,23.25
2022-12-15T15:46:54.754Z,24.25
2022-12-15T15:49:37.650Z,22.33
2022-12-15T15:52:20.277Z,22.50
2022-12-15T15:54:47.552Z,24.13
2022-12-15T15:57:18.745Z,22.65
2022-12-15T15:59:52.998Z,23.98
2022-12-15T16:02:23.664Z,26.65
2022-12-15T16:04:50.932Z,25.50
2022-12-15T16:07:34.095Z,28.75
2022-12-15T16:10:01.306Z,31.27
2022-12-15T16:12:33.572Z,31.45
2022-12-15T16:17:34.880Z,35.53
2022-12-15T16:20:02.004Z,33.90
2022-12-15T16:22:36.334Z,29.05
2022-12-15T16:25:42.447Z,33.78
2022-12-15T16:28:23.211Z,33.65
2022-12-15T16:30:51.091Z,35.88
2022-12-15T16:33:34.046Z,33.40
2022-12-15T16:36:00.904Z,33.17
2022-12-15T16:38:32.952Z,36.58
2022-12-15T16:41:21.228Z,35.28
2022-12-15T16:43:59.766Z,32.53
2022-12-15T16:46:33.254Z,34.53
2022-12-15T16:49:00.341Z,34.53
2022-12-15T16:51:41.335Z,37.20
2022-12-15T16:54:16.840Z,35.75
2022-12-15T16:56:50.085Z,34.15
2022-12-15T16:59:35.354Z,31.25
2022-12-15T17:02:32.970Z,36.78
2022-12-15T17:05:10.160Z,34.45
2022-12-15T17:07:44.089Z,40.72
2022-12-15T17:10:27.090Z,38.13
2022-12-15T17:12:59.383Z,41.28
2022-12-15T17:18:08.086Z,43.20
2022-12-15T17:20:42.045Z,41.75
2022-12-15T17:23:22.433Z,38.05
2022-12-15T17:28:51.132Z,37.83
2022-12-15T17:31:33.300Z,34.30
2022-12-15T17:34:20.121Z,31.05
2022-12-15T17:36:50.779Z,35.90
2022-12-15T17:39:29.187Z,36.60
2022-12-15T17:42:03.435Z,38.28
2022-12-15T17:44:43.294Z,35.58
2022-12-15T17:47:17.141Z,32.33
2022-12-15T17:49:53.220Z,31.67
2022-12-15T17:52:31.590Z,32.95
2022-12-15T17:55:05.150Z,38.83
2022-12-15T17:57:38.199Z,34.67
2022-12-15T18:00:34.649Z,35.90
2022-12-15T18:03:29.868Z,29.90
2022-12-15T18:06:17.515Z,28.90
2022-12-15T18:09:10.236Z,31.05
2022-12-15T18:11:44.205Z,25.17
2022-12-15T18:14:15.732Z,26.65
2022-12-15T18:16:54.414Z,28.25
2022-12-15T18:19:21.399Z,27.23
2022-12-15T18:21:51.196Z,25.13
2022-12-15T18:24:28.192Z,25.08
2022-12-15T18:27:02.196Z,25.88
2022-12-15T18:29:35.337Z,27.25
2022-12-15T18:32:02.470Z,28.52
2022-12-15T18:34:29.399Z,35.47
2022-12-15T18:37:03.208Z,33.92
2022-12-15T18:39:30.705Z,41.67
2022-12-15T18:42:04.254Z,42.47
2022-12-15T18:44:40.327Z,43.28
2022-12-15T18:47:16.351Z,47.45
2022-12-15T18:49:50.235Z,43.63
2022-12-15T18:52:31.446Z,48.92
2022-12-15T18:55:08.269Z,45.95
2022-12-15T18:57:36.445Z,43.22
2022-12-15T19:00:22.347Z,44.42
2022-12-15T19:02:53.211Z,42.17
2022-12-15T19:05:39.269Z,42.75
2022-12-15T19:08:20.198Z,47.72
2022-12-15T19:11:00.333Z,49.05
2022-12-15T19:13:36.291Z,50.50
2022-12-15T19:16:13.337Z,52.85
2022-12-15T19:19:00.461Z,63.00
2022-12-15T19:22:01.360Z,60.38
2022-12-15T19:24:59.551Z,58.25
2022-12-15T19:27:34.381Z,52.70
2022-12-15T19:30:01.813Z,53.53
2022-12-15T19:32:29.171Z,54.20
2022-12-15T19:35:02.348Z,50.85
2022-12-15T19:38:03.395Z,49.72
2022-12-15T19:40:32.577Z,50.50
2022-12-15T19:43:07.463Z,49.67
2022-12-15T19:45:40.431Z,51.10
2022-12-15T19:48:07.437Z,51.42
2022-12-15T19:50:43.405Z,48.30
2022-12-15T19:53:25.611Z,54.97
2022-12-15T19:56:02.448Z,54.22
2022-12-15T19:58:34.445Z,55.92
2022-12-15T20:01:12.479Z,53.45
2022-12-15T20:03:43.853Z,54.90
2022-12-15T20:06:29.374Z,55.72
2022-12-15T20:09:03.339Z,50.38
2022-12-15T20:11:38.894Z,56.70
2022-12-15T20:14:19.366Z,54.50
2022-12-15T20:16:46.642Z,50.83
2022-12-15T20:19:20.399Z,55.10
2022-12-15T20:21:59.435Z,63.30
2022-12-15T20:24:27.228Z,49.65
2022-12-15T20:26:57.318Z,51.95
2022-12-15T20:29:37.470Z,61.17
2022-12-15T20:32:20.507Z,52.47
2022-12-15T20:34:47.800Z,58.13
2022-12-15T20:37:34.471Z,57.38
2022-12-15T20:40:01.371Z,56.00
2022-12-15T20:42:31.080Z,52.17
2022-12-15T20:45:04.474Z,54.03
2022-12-15T20:47:31.680Z,51.40
2022-12-15T20:49:58.551Z,57.03
2022-12-15T20:52:34.432Z,51.30
2022-12-15T20:55:03.058Z,52.92
2022-12-15T20:57:36.474Z,50.70
2022-12-15T21:00:05.013Z,46.47
2022-12-15T21:02:39.698Z,51.17
2022-12-15T21:05:07.560Z,49.10
2022-12-15T21:07:41.582Z,50.10
2022-12-15T21:10:16.442Z,50.55
2022-12-15T21:12:59.502Z,43.25
2022-12-15T21:15:33.473Z,48.25
2022-12-15T21:18:40.199Z,50.70
2022-12-15T21:20:59.574Z,48.47
2022-12-15T21:23:29.931Z,52.97
2022-12-15T21:26:07.472Z,44.75
2022-12-15T21:28:41.550Z,50.33
2022-12-15T21:31:08.680Z,43.00
2022-12-15T21:33:42.565Z,43.63
2022-12-15T21:36:20.648Z,42.20
2022-12-15T21:38:57.505Z,59.05
2022-12-15T21:41:24.720Z,55.80
2022-12-15T21:43:58.491Z,56.13
2022-12-15T21:46:35.492Z,58.25
2022-12-15T21:49:20.595Z,59.85
2022-12-15T21:51:57.558Z,56.88
2022-12-15T21:54:31.117Z,58.53
2022-12-15T21:57:06.506Z,57.90
2022-12-15T21:59:34.808Z,58.17
2022-12-15T22:02:32.601Z,56.90
2022-12-15T22:05:06.494Z,55.83
2022-12-15T22:07:35.740Z,61.97
2022-12-15T22:10:09.570Z,51.60
2022-12-15T22:12:45.515Z,48.90
2022-12-15T22:15:21.464Z,49.20
2022-12-15T22:17:55.572Z,47.25
2022-12-15T22:20:24.537Z,51.67
2022-12-15T22:22:58.555Z,51.10
2022-12-15T22:25:32.530Z,55.67
2022-12-15T22:28:05.588Z,47.15
2022-12-15T22:30:33.212Z,49.28
2022-12-15T22:33:00.575Z,48.88
2022-12-15T22:35:34.613Z,47.40
2022-12-15T22:38:01.811Z,49.75
2022-12-15T22:40:30.243Z,50.45
2022-12-15T22:43:04.549Z,45.88
2022-12-15T22:45:37.063Z,49.92
2022-12-15T22:48:12.577Z,55.10
2022-12-15T22:50:39.485Z,50.50
2022-12-15T22:53:21.591Z,51.35
2022-12-15T22:55:49.872Z,52.47
2022-12-15T22:58:37.549Z,50.97
2022-12-15T23:01:06.729Z,50.50
2022-12-15T23:03:40.606Z,48.22
2022-12-15T23:06:07.448Z,42.17
2022-12-15T23:08:40.642Z,46.70
2022-12-15T23:11:32.575Z,38.35
2022-12-15T23:14:02.057Z,35.60
2022-12-15T23:16:35.762Z,35.65
2022-12-15T23:19:10.769Z,36.15
2022-12-15T23:21:37.992Z,42.03
2022-12-15T23:24:11.678Z,41.38
2022-12-15T23:26:38.518Z,32.05
2022-12-15T23:29:11.609Z,35.53
2022-12-15T23:31:38.490Z,30.15
2022-12-15T23:34:11.661Z,32.63
2022-12-15T23:36:38.482Z,34.80
2022-12-15T23:39:05.334Z,31.52
2022-12-15T23:41:39.697Z,25.27
2022-12-15T23:44:12.643Z,33.05
2022-12-15T23:46:45.709Z,30.30
2022-12-15T23:49:12.486Z,31.55
2022-12-15T23:51:39.266Z,26.05
2022-12-15T23:54:12.799Z,39.50
2022-12-15T23:56:46.876Z,35.83
2022-12-15T23:59:20.630Z,35.50
